createdAt,value
2022-09-02T00:01:35.484Z,14.50
2022-09-02T00:03:38.190Z,14.40
2022-09-02T00:05:42.049Z,14.20
2022-09-02T00:07:45.845Z,14.20
2022-09-02T00:09:48.390Z,14.00
2022-09-02T00:11:53.024Z,14.00
2022-09-02T00:13:57.786Z,13.90
2022-09-02T00:16:00.590Z,13.80
2022-09-02T00:18:04.881Z,13.80
2022-09-02T00:20:11.202Z,13.90
2022-09-02T00:22:13.831Z,13.90
2022-09-02T00:24:17.381Z,14.00
2022-09-02T00:26:20.894Z,14.00
2022-09-02T00:28:23.591Z,14.00
2022-09-02T00:30:26.800Z,14.00
2022-09-02T00:32:29.602Z,14.00
2022-09-02T00:34:33.030Z,14.00
2022-09-02T00:36:35.771Z,14.00
2022-09-02T00:38:39.870Z,14.00
2022-09-02T00:40:50.758Z,14.00
2022-09-02T00:42:53.746Z,14.00
2022-09-02T00:44:56.409Z,14.00
2022-09-02T00:46:58.971Z,14.00
2022-09-02T00:49:28.009Z,14.00
2022-09-02T00:51:38.478Z,14.00
2022-09-02T00:53:44.890Z,14.00
2022-09-02T00:55:50.567Z,14.00
2022-09-02T00:58:09.286Z,13.90
2022-09-02T01:00:34.515Z,13.90
2022-09-02T01:02:40.898Z,13.90
2022-09-02T01:04:46.742Z,13.90
2022-09-02T01:06:49.432Z,13.80
2022-09-02T01:09:03.201Z,13.80
2022-09-02T01:11:06.724Z,13.80
2022-09-02T01:13:19.572Z,13.70
2022-09-02T01:15:22.552Z,13.70
2022-09-02T01:17:26.341Z,13.60
2022-09-02T01:19:39.525Z,13.50
2022-09-02T01:21:53.915Z,13.40
2022-09-02T01:23:56.866Z,13.30
2022-09-02T01:25:59.610Z,13.10
2022-09-02T01:28:08.446Z,13.00
2022-09-02T01:30:15.145Z,12.90
2022-09-02T01:32:18.566Z,12.80
2022-09-02T01:34:21.207Z,12.70
2022-09-02T01:36:23.954Z,12.60
2022-09-02T01:38:26.581Z,12.50
2022-09-02T01:40:31.271Z,12.40
2022-09-02T01:42:33.926Z,12.40
2022-09-02T01:44:44.165Z,12.30
2022-09-02T01:46:47.720Z,12.20
2022-09-02T01:48:51.413Z,12.20
2022-09-02T01:50:59.564Z,12.20
2022-09-02T01:53:03.885Z,12.10
2022-09-02T01:55:08.817Z,12.10
2022-09-02T01:57:12.056Z,12.00
2022-09-02T01:59:18.233Z,12.00
2022-09-02T02:01:21.218Z,12.00
2022-09-02T02:03:25.438Z,11.90
2022-09-02T02:05:30.858Z,11.90
2022-09-02T02:07:45.882Z,11.90
2022-09-02T02:09:49.627Z,11.90
2022-09-02T02:11:52.860Z,11.90
2022-09-02T02:13:55.497Z,11.90
2022-09-02T02:15:58.361Z,11.80
2022-09-02T02:18:01.954Z,11.80
2022-09-02T02:20:07.411Z,11.70
2022-09-02T02:22:11.089Z,11.70
2022-09-02T02:24:14.453Z,11.70
2022-09-02T02:26:17.397Z,11.60
2022-09-02T02:28:20.202Z,11.60
2022-09-02T02:30:24.069Z,11.50
2022-09-02T02:32:27.126Z,11.50
2022-09-02T02:34:29.962Z,11.50
2022-09-02T02:36:32.918Z,11.50
2022-09-02T02:38:38.237Z,11.40
2022-09-02T02:40:42.017Z,11.40
2022-09-02T02:42:44.717Z,11.40
2022-09-02T02:44:47.318Z,11.40
2022-09-02T02:46:50.214Z,11.30
2022-09-02T02:48:52.823Z,11.30
2022-09-02T02:50:55.915Z,11.20
2022-09-02T02:52:58.643Z,11.20
2022-09-02T02:55:02.040Z,11.20
2022-09-02T02:57:06.186Z,11.20
2022-09-02T02:59:08.981Z,11.10
2022-09-02T03:01:11.817Z,11.10
2022-09-02T03:03:44.748Z,11.10
2022-09-02T03:05:50.322Z,11.10
2022-09-02T03:07:54.248Z,11.10
2022-09-02T03:09:58.050Z,11.10
2022-09-02T03:12:00.937Z,11.10
2022-09-02T03:14:05.487Z,11.10
2022-09-02T03:16:09.317Z,11.20
2022-09-02T03:18:11.983Z,11.10
2022-09-02T03:20:16.746Z,11.10
2022-09-02T03:22:22.889Z,11.10
2022-09-02T03:24:26.731Z,11.10
2022-09-02T03:26:29.358Z,11.10
2022-09-02T03:28:33.699Z,11.00
2022-09-02T03:30:41.541Z,11.00
2022-09-02T03:32:44.604Z,11.00
2022-09-02T03:34:47.808Z,11.00
2022-09-02T03:36:50.519Z,11.00
2022-09-02T03:38:54.052Z,10.90
2022-09-02T03:41:03.927Z,10.90
2022-09-02T03:43:06.698Z,10.90
2022-09-02T03:45:11.415Z,10.90
2022-09-02T03:47:15.128Z,10.90
2022-09-02T03:49:17.785Z,10.90
2022-09-02T03:51:22.156Z,10.90
2022-09-02T03:53:25.333Z,10.90
2022-09-02T03:55:33.111Z,10.90
2022-09-02T03:57:37.039Z,10.80
2022-09-02T03:59:39.734Z,10.80
2022-09-02T04:01:42.689Z,10.80
2022-09-02T04:03:45.728Z,10.70
2022-09-02T04:05:50.852Z,10.70
2022-09-02T04:07:53.717Z,10.70
2022-09-02T04:09:56.527Z,10.60
2022-09-02T04:11:59.172Z,10.60
2022-09-02T04:14:02.055Z,10.60
2022-09-02T04:16:15.889Z,10.60
2022-09-02T04:18:19.025Z,10.60
2022-09-02T04:20:21.781Z,10.60
2022-09-02T04:22:24.463Z,10.50
2022-09-02T04:24:27.254Z,10.50
2022-09-02T04:26:30.085Z,10.50
2022-09-02T04:28:34.885Z,10.50
2022-09-02T04:30:42.688Z,10.50
2022-09-02T04:32:46.828Z,10.60
2022-09-02T04:34:49.981Z,10.60
2022-09-02T04:36:54.318Z,10.60
2022-09-02T04:38:58.429Z,10.60
2022-09-02T04:41:15.165Z,10.60
2022-09-02T04:43:18.326Z,10.60
2022-09-02T04:45:24.576Z,10.70
2022-09-02T04:47:29.580Z,10.70
2022-09-02T04:49:33.348Z,10.70
2022-09-02T04:51:36.096Z,10.70
2022-09-02T04:53:41.419Z,10.70
2022-09-02T04:55:44.248Z,10.70
2022-09-02T04:57:49.374Z,10.80
2022-09-02T04:59:52.037Z,10.80
2022-09-02T05:01:56.595Z,10.80
2022-09-02T05:04:09.890Z,10.90
2022-09-02T05:06:27.290Z,11.00
2022-09-02T05:08:33.683Z,11.00
2022-09-02T05:10:39.890Z,11.10
2022-09-02T05:12:43.054Z,11.00
2022-09-02T05:14:48.923Z,11.00
2022-09-02T05:16:56.454Z,11.00
2022-09-02T05:19:24.983Z,11.00
2022-09-02T05:21:34.439Z,11.10
2022-09-02T05:23:37.794Z,11.10
2022-09-02T05:25:43.385Z,11.20
2022-09-02T05:28:12.835Z,11.30
2022-09-02T05:30:15.993Z,11.40
2022-09-02T05:32:23.287Z,11.50
2022-09-02T05:34:28.289Z,11.60
2022-09-02T05:36:34.738Z,11.70
2022-09-02T05:38:37.482Z,11.90
2022-09-02T05:40:40.166Z,12.00
2022-09-02T05:42:45.051Z,12.20
2022-09-02T05:44:51.226Z,12.30
2022-09-02T05:46:56.587Z,12.40
2022-09-02T05:49:19.189Z,12.50
2022-09-02T05:51:26.327Z,12.60
2022-09-02T05:53:30.961Z,12.70
2022-09-02T05:55:35.640Z,12.80
2022-09-02T05:57:39.572Z,12.80
2022-09-02T05:59:44.840Z,13.00
2022-09-02T06:01:51.955Z,13.10
2022-09-02T06:03:55.563Z,13.10
2022-09-02T06:06:04.415Z,13.20
2022-09-02T06:08:11.087Z,13.30
2022-09-02T06:10:26.267Z,13.40
2022-09-02T06:12:31.138Z,13.50
2022-09-02T06:14:35.028Z,13.60
2022-09-02T06:16:38.652Z,13.70
2022-09-02T06:18:47.010Z,13.80
2022-09-02T06:20:50.430Z,13.90
2022-09-02T06:22:53.397Z,13.90
2022-09-02T06:24:56.608Z,14.00
2022-09-02T06:27:02.130Z,14.10
2022-09-02T06:29:05.886Z,14.20
2022-09-02T06:31:16.170Z,14.20
2022-09-02T06:33:20.259Z,14.30
2022-09-02T06:35:25.448Z,14.40
2022-09-02T06:37:30.105Z,14.50
2022-09-02T06:39:33.824Z,14.70
2022-09-02T06:41:39.880Z,14.80
2022-09-02T06:43:46.290Z,14.90
2022-09-02T06:45:54.819Z,15.00
2022-09-02T06:47:58.149Z,15.10
2022-09-02T06:50:01.760Z,15.20
2022-09-02T06:52:08.811Z,15.20
2022-09-02T06:54:17.050Z,15.30
2022-09-02T06:56:23.189Z,15.40
2022-09-02T06:58:25.914Z,15.50
2022-09-02T07:00:29.512Z,15.60
2022-09-02T07:02:32.534Z,15.60
2022-09-02T07:04:57.041Z,15.80
2022-09-02T07:07:00.452Z,15.90
2022-09-02T07:09:09.753Z,16.00
2022-09-02T07:11:23.840Z,16.10
2022-09-02T07:13:29.207Z,16.10
2022-09-02T07:15:32.427Z,16.20
2022-09-02T07:17:35.527Z,16.20
2022-09-02T07:19:40.320Z,16.40
2022-09-02T07:21:43.712Z,16.50
2022-09-02T07:23:47.688Z,16.60
2022-09-02T07:25:51.169Z,16.60
2022-09-02T07:27:55.166Z,16.70
2022-09-02T07:29:59.333Z,16.80
2022-09-02T07:32:03.416Z,17.00
2022-09-02T07:34:07.687Z,17.10
2022-09-02T07:36:12.918Z,17.20
2022-09-02T07:38:17.476Z,17.30
2022-09-02T07:40:20.396Z,17.40
2022-09-02T07:42:24.720Z,17.40
2022-09-02T07:44:28.464Z,17.50
2022-09-02T07:46:32.302Z,17.50
2022-09-02T07:48:36.176Z,17.50
2022-09-02T07:50:39.203Z,17.50
2022-09-02T07:52:45.215Z,17.60
2022-09-02T07:54:47.841Z,17.70
2022-09-02T07:56:50.984Z,17.70
2022-09-02T07:58:55.229Z,17.80
2022-09-02T08:00:58.173Z,17.80
2022-09-02T08:03:01.886Z,17.80
2022-09-02T08:05:10.913Z,18.00
2022-09-02T08:07:13.538Z,18.00
2022-09-02T08:09:16.176Z,18.10
2022-09-02T08:11:42.866Z,18.10
2022-09-02T08:13:45.990Z,18.20
2022-09-02T08:15:50.841Z,18.10
2022-09-02T08:17:53.524Z,18.20
2022-09-02T08:19:56.905Z,18.30
2022-09-02T08:22:08.501Z,18.50
2022-09-02T08:24:11.485Z,18.60
2022-09-02T08:26:14.245Z,18.80
2022-09-02T08:28:16.902Z,18.90
2022-09-02T08:30:19.637Z,18.90
2022-09-02T08:32:22.234Z,19.00
2022-09-02T08:34:25.664Z,18.90
2022-09-02T08:36:28.772Z,18.90
2022-09-02T08:38:31.662Z,19.00
2022-09-02T08:40:42.007Z,19.10
2022-09-02T08:42:52.022Z,19.20
2022-09-02T08:45:06.015Z,19.40
2022-09-02T08:47:16.459Z,19.50
2022-09-02T08:49:31.082Z,19.50
2022-09-02T08:52:04.344Z,19.60
2022-09-02T08:54:32.538Z,19.70
2022-09-02T08:56:35.177Z,19.80
2022-09-02T08:58:43.479Z,20.00
2022-09-02T09:01:30.039Z,20.10
2022-09-02T09:04:12.773Z,20.20
2022-09-02T09:06:31.044Z,20.30
2022-09-02T09:08:47.746Z,20.50
2022-09-02T09:11:18.483Z,20.50
2022-09-02T09:14:03.301Z,20.70
2022-09-02T09:16:37.816Z,20.70
2022-09-02T09:18:55.462Z,20.80
2022-09-02T09:20:58.104Z,20.80
2022-09-02T09:23:09.687Z,20.80
2022-09-02T09:25:16.297Z,20.70
2022-09-02T09:27:23.456Z,20.70
2022-09-02T09:29:26.982Z,20.60
2022-09-02T09:31:32.558Z,20.60
2022-09-02T09:34:17.556Z,20.60
2022-09-02T09:36:20.238Z,20.60
2022-09-02T09:38:36.778Z,20.50
2022-09-02T09:40:39.574Z,20.60
2022-09-02T09:42:45.591Z,20.70
2022-09-02T09:44:51.767Z,20.80
2022-09-02T09:47:14.774Z,20.90
2022-09-02T09:49:27.346Z,20.90
2022-09-02T09:51:29.942Z,21.00
2022-09-02T09:53:52.929Z,20.90
2022-09-02T09:56:05.305Z,20.90
2022-09-02T09:58:10.428Z,20.70
2022-09-02T10:00:35.938Z,20.80
2022-09-02T10:02:51.469Z,20.90
2022-09-02T10:05:11.185Z,21.00
2022-09-02T10:07:14.392Z,21.20
2022-09-02T10:09:20.104Z,21.30
2022-09-02T10:11:27.156Z,21.40
2022-09-02T10:13:33.826Z,21.30
2022-09-02T10:15:50.115Z,21.40
2022-09-02T10:18:22.372Z,21.60
2022-09-02T10:20:32.816Z,21.60
2022-09-02T10:23:27.339Z,21.70
2022-09-02T10:26:06.584Z,21.80
2022-09-02T10:28:41.842Z,22.00
2022-09-02T10:31:13.476Z,22.10
2022-09-02T10:33:37.384Z,22.20
2022-09-02T10:35:43.698Z,22.20
2022-09-02T10:38:11.310Z,22.20
2022-09-02T10:40:49.777Z,22.20
2022-09-02T10:43:10.207Z,22.20
2022-09-02T10:45:24.400Z,22.20
2022-09-02T10:47:39.789Z,22.30
2022-09-02T10:49:56.866Z,22.30
2022-09-02T10:52:51.181Z,22.10
2022-09-02T10:55:09.337Z,21.90
2022-09-02T10:57:38.429Z,21.60
2022-09-02T10:59:52.743Z,21.70
2022-09-02T11:02:38.291Z,21.60
2022-09-02T11:04:59.751Z,21.60
2022-09-02T11:07:04.876Z,21.60
2022-09-02T11:09:37.273Z,21.70
2022-09-02T11:12:12.065Z,21.70
2022-09-02T11:14:25.156Z,21.80
2022-09-02T11:16:46.536Z,21.90
2022-09-02T11:19:22.284Z,22.00
2022-09-02T11:21:39.130Z,22.10
2022-09-02T11:23:50.426Z,22.20
2022-09-02T11:26:05.557Z,22.30
2022-09-02T11:28:46.280Z,22.40
2022-09-02T11:31:21.385Z,22.30
2022-09-02T11:33:51.566Z,22.20
2022-09-02T11:35:54.199Z,22.20
2022-09-02T11:38:09.487Z,22.20
2022-09-02T11:40:35.177Z,22.10
2022-09-02T11:42:57.413Z,22.20
2022-09-02T11:45:20.833Z,22.30
2022-09-02T11:47:26.888Z,22.30
2022-09-02T11:49:51.236Z,22.30
2022-09-02T11:52:17.944Z,22.20
2022-09-02T11:54:23.946Z,22.20
2022-09-02T11:56:37.988Z,22.20
2022-09-02T11:58:46.308Z,22.10
2022-09-02T12:01:00.277Z,22.20
2022-09-02T12:03:37.935Z,22.20
2022-09-02T12:05:39.923Z,22.20
2022-09-02T12:07:51.413Z,22.30
2022-09-02T12:09:56.780Z,22.30
2022-09-02T12:12:00.175Z,22.20
2022-09-02T12:14:04.689Z,22.00
2022-09-02T12:16:19.478Z,21.90
2022-09-02T12:22:16.025Z,21.80
2022-09-02T12:24:21.378Z,21.80
2022-09-02T12:26:48.190Z,21.90
2022-09-02T12:29:19.429Z,22.00
2022-09-02T12:31:41.293Z,22.10
2022-09-02T12:33:49.282Z,22.20
2022-09-02T12:35:53.536Z,22.30
2022-09-02T12:37:58.361Z,22.40
2022-09-02T12:40:14.504Z,22.30
2022-09-02T12:42:33.395Z,22.30
2022-09-02T12:45:03.091Z,22.20
2022-09-02T12:47:26.897Z,22.20
2022-09-02T12:49:55.216Z,22.30
2022-09-02T12:52:02.535Z,22.40
2022-09-02T12:54:06.529Z,22.50
2022-09-02T12:56:23.676Z,22.60
2022-09-02T12:58:29.782Z,22.70
2022-09-02T13:01:07.676Z,22.80
2022-09-02T13:03:25.099Z,22.80
2022-09-02T13:06:01.474Z,22.70
2022-09-02T13:08:31.576Z,22.60
2022-09-02T13:10:57.615Z,22.60
2022-09-02T13:13:33.413Z,22.40
2022-09-02T13:15:49.931Z,22.20
2022-09-02T13:18:39.854Z,22.20
2022-09-02T13:21:00.568Z,22.20
2022-09-02T13:23:58.897Z,22.20
2022-09-02T13:26:58.780Z,22.30
2022-09-02T13:29:51.133Z,22.50
2022-09-02T13:32:19.572Z,22.60
2022-09-02T13:34:22.109Z,22.60
2022-09-02T13:36:30.846Z,22.70
2022-09-02T13:38:36.124Z,22.70
2022-09-02T13:40:40.845Z,22.60
2022-09-02T13:42:58.608Z,22.60
2022-09-02T13:45:16.477Z,22.50
2022-09-02T13:47:20.705Z,22.50
2022-09-02T13:49:28.269Z,22.40
2022-09-02T13:51:30.917Z,22.30
2022-09-02T13:53:45.213Z,22.20
2022-09-02T13:55:58.288Z,22.10
2022-09-02T13:58:23.472Z,21.90
2022-09-02T14:00:38.714Z,21.80
2022-09-02T14:02:41.446Z,21.70
2022-09-02T14:04:44.271Z,21.60
2022-09-02T14:06:48.682Z,21.60
2022-09-02T14:08:58.789Z,21.60
2022-09-02T14:11:07.374Z,21.70
2022-09-02T14:13:11.660Z,21.70
2022-09-02T14:15:23.118Z,21.80
2022-09-02T14:17:27.372Z,21.80
2022-09-02T14:19:29.947Z,21.90
2022-09-02T14:21:32.936Z,22.00
2022-09-02T14:23:38.780Z,22.10
2022-09-02T14:25:59.695Z,22.20
2022-09-02T14:28:11.233Z,22.30
2022-09-02T14:30:26.248Z,22.50
2022-09-02T14:32:29.319Z,22.70
2022-09-02T14:34:38.132Z,22.90
2022-09-02T14:36:40.801Z,23.10
2022-09-02T14:38:46.327Z,23.20
2022-09-02T14:40:48.979Z,23.20
2022-09-02T14:42:57.594Z,23.20
2022-09-02T14:45:03.439Z,23.10
2022-09-02T14:47:07.631Z,23.10
2022-09-02T14:49:19.739Z,22.90
2022-09-02T14:51:22.517Z,22.80
2022-09-02T14:53:25.233Z,22.60
2022-09-02T14:55:55.680Z,22.40
2022-09-02T14:58:03.208Z,22.20
2022-09-02T15:00:11.654Z,22.00
2022-09-02T15:02:32.224Z,21.90
2022-09-02T15:04:35.724Z,21.80
2022-09-02T15:06:38.521Z,21.70
2022-09-02T15:08:41.093Z,21.60
2022-09-02T15:10:45.144Z,21.60
2022-09-02T15:12:54.790Z,21.60
2022-09-02T15:14:58.144Z,21.70
2022-09-02T15:17:01.019Z,21.80
2022-09-02T15:19:03.695Z,21.90
2022-09-02T15:21:07.148Z,21.90
2022-09-02T15:23:09.815Z,21.90
2022-09-02T15:25:12.836Z,21.80
2022-09-02T15:27:15.977Z,21.80
2022-09-02T15:29:26.942Z,21.70
2022-09-02T15:31:31.461Z,21.70
2022-09-02T15:33:34.396Z,21.70
2022-09-02T15:35:37.000Z,21.80
2022-09-02T15:37:40.781Z,21.90
2022-09-02T15:39:44.650Z,22.00
2022-09-02T15:41:47.612Z,22.10
2022-09-02T15:43:50.845Z,22.30
2022-09-02T15:45:53.848Z,22.50
2022-09-02T15:47:59.665Z,22.60
2022-09-02T15:50:02.381Z,22.70
2022-09-02T15:52:06.095Z,22.70
2022-09-02T15:54:11.475Z,22.70
2022-09-02T15:56:22.460Z,22.70
2022-09-02T15:58:25.061Z,22.60
2022-09-02T16:00:28.744Z,22.50
2022-09-02T16:02:31.464Z,22.30
2022-09-02T16:04:35.502Z,22.20
2022-09-02T16:06:43.147Z,22.10
2022-09-02T16:08:45.880Z,21.90
2022-09-02T16:10:49.588Z,21.80
2022-09-02T16:12:52.189Z,21.70
2022-09-02T16:14:54.870Z,21.60
2022-09-02T16:16:57.630Z,21.50
2022-09-02T16:19:00.563Z,21.40
2022-09-02T16:21:04.444Z,21.40
2022-09-02T16:23:07.009Z,21.30
2022-09-02T16:25:09.870Z,21.30
2022-09-02T16:27:13.591Z,21.30
2022-09-02T16:29:17.836Z,21.20
2022-09-02T16:31:22.038Z,21.20
2022-09-02T16:33:24.994Z,21.30
2022-09-02T16:35:27.648Z,21.20
2022-09-02T16:37:30.298Z,21.20
2022-09-02T16:39:32.961Z,21.30
2022-09-02T16:41:45.208Z,21.30
2022-09-02T16:43:47.770Z,21.50
2022-09-02T16:45:52.837Z,21.60
2022-09-02T16:47:55.625Z,21.60
2022-09-02T16:49:58.423Z,21.70
2022-09-02T16:52:01.268Z,21.80
2022-09-02T16:54:05.463Z,21.80
2022-09-02T16:56:13.295Z,21.80
2022-09-02T16:58:15.988Z,21.80
2022-09-02T17:00:18.686Z,21.80
2022-09-02T17:02:21.291Z,21.80
2022-09-02T17:04:24.024Z,21.70
2022-09-02T17:06:28.494Z,21.70
2022-09-02T17:08:31.208Z,21.70
2022-09-02T17:10:35.177Z,21.60
2022-09-02T17:12:42.678Z,21.60
2022-09-02T17:14:46.168Z,21.60
2022-09-02T17:16:51.087Z,21.50
2022-09-02T17:18:54.764Z,21.50
2022-09-02T17:21:28.850Z,21.40
2022-09-02T17:23:31.423Z,21.30
2022-09-02T17:25:33.986Z,21.20
2022-09-02T17:27:37.657Z,21.10
2022-09-02T17:29:49.513Z,21.00
2022-09-02T17:31:52.622Z,21.00
2022-09-02T17:33:57.832Z,21.00
2022-09-02T17:36:01.618Z,20.90
2022-09-02T17:38:04.157Z,20.90
2022-09-02T17:40:32.007Z,20.90
2022-09-02T17:42:34.834Z,20.80
2022-09-02T17:44:39.765Z,20.70
2022-09-02T17:46:44.310Z,20.60
2022-09-02T17:49:12.990Z,20.60
2022-09-02T17:51:09.484Z,20.40
2022-09-02T17:53:12.627Z,20.40
2022-09-02T17:55:15.704Z,20.30
2022-09-02T17:57:42.388Z,20.20
2022-09-02T18:00:26.743Z,20.10
2022-09-02T18:03:08.366Z,20.10
2022-09-02T18:05:28.877Z,20.00
2022-09-02T18:08:05.895Z,19.90
2022-09-02T18:10:08.560Z,19.90
2022-09-02T18:12:11.930Z,19.80
2022-09-02T18:14:36.058Z,19.70
2022-09-02T18:17:07.726Z,19.60
2022-09-02T18:19:56.824Z,19.60
2022-09-02T18:22:09.287Z,19.50
2022-09-02T18:24:32.635Z,19.40
2022-09-02T18:27:13.449Z,19.40
2022-09-02T18:30:07.352Z,19.30
2022-09-02T18:32:58.930Z,19.30
2022-09-02T18:35:22.739Z,19.30
2022-09-02T18:38:08.884Z,19.30
2022-09-02T18:40:35.004Z,19.30
2022-09-02T18:43:20.826Z,19.20
2022-09-02T18:45:32.692Z,19.20
2022-09-02T18:48:13.413Z,19.20
2022-09-02T18:50:47.715Z,19.10
2022-09-02T18:52:49.560Z,19.10
2022-09-02T18:55:16.228Z,19.00
2022-09-02T18:57:18.914Z,19.00
2022-09-02T18:59:47.078Z,19.00
2022-09-02T19:01:57.205Z,18.90
2022-09-02T19:04:00.157Z,18.90
2022-09-02T19:06:08.503Z,18.90
2022-09-02T19:08:32.684Z,18.80
2022-09-02T19:10:35.289Z,18.80
2022-09-02T19:12:38.135Z,18.70
2022-09-02T19:14:41.157Z,18.60
2022-09-02T19:16:43.818Z,18.60
2022-09-02T19:18:47.069Z,18.50
2022-09-02T19:20:49.890Z,18.50
2022-09-02T19:22:57.294Z,18.40
2022-09-02T19:25:10.654Z,18.40
2022-09-02T19:27:21.728Z,18.40
2022-09-02T19:29:25.430Z,18.40
2022-09-02T19:31:31.923Z,18.40
2022-09-02T19:33:36.599Z,18.30
2022-09-02T19:35:49.150Z,18.20
2022-09-02T19:37:54.368Z,18.20
2022-09-02T19:40:01.835Z,18.20
2022-09-02T19:42:06.648Z,18.10
2022-09-02T19:44:12.290Z,18.10
2022-09-02T19:46:41.500Z,18.10
2022-09-02T19:48:39.357Z,18.00
2022-09-02T19:50:44.373Z,18.00
2022-09-02T19:52:52.091Z,18.00
2022-09-02T19:54:54.640Z,18.00
2022-09-02T19:56:57.552Z,17.90
2022-09-02T19:59:00.721Z,17.90
2022-09-02T20:01:05.859Z,17.80
2022-09-02T20:03:09.797Z,17.80
2022-09-02T20:05:14.053Z,17.70
2022-09-02T20:07:16.653Z,17.70
2022-09-02T20:09:19.210Z,17.60
2022-09-02T20:11:25.508Z,17.60
2022-09-02T20:13:30.046Z,17.50
2022-09-02T20:15:38.314Z,17.50
2022-09-02T20:17:41.793Z,17.50
2022-09-02T20:19:45.522Z,17.40
2022-09-02T20:21:49.384Z,17.30
2022-09-02T20:23:53.963Z,17.30
2022-09-02T20:26:05.425Z,17.30
2022-09-02T20:28:35.375Z,17.20
2022-09-02T20:30:42.808Z,17.20
2022-09-02T20:33:16.438Z,17.20
2022-09-02T20:36:02.561Z,17.20
2022-09-02T20:38:32.193Z,17.10
2022-09-02T20:41:10.202Z,17.00
2022-09-02T20:44:13.658Z,17.00
2022-09-02T20:46:59.135Z,16.90
2022-09-02T20:49:47.914Z,16.90
2022-09-02T20:52:08.037Z,16.80
2022-09-02T20:54:36.729Z,16.70
2022-09-02T20:56:54.737Z,16.70
2022-09-02T20:59:27.956Z,16.70
2022-09-02T21:01:37.843Z,16.60
2022-09-02T21:04:24.533Z,16.60
2022-09-02T21:06:33.519Z,16.50
2022-09-02T21:08:47.065Z,16.50
2022-09-02T21:10:52.853Z,16.40
2022-09-02T21:13:54.023Z,16.40
2022-09-02T21:16:00.280Z,16.40
2022-09-02T21:18:20.619Z,16.30
2022-09-02T21:20:50.341Z,16.30
2022-09-02T21:23:00.763Z,16.20
2022-09-02T21:25:22.360Z,16.20
2022-09-02T21:27:33.707Z,16.20
2022-09-02T21:29:48.809Z,16.10
2022-09-02T21:32:23.953Z,16.10
2022-09-02T21:34:39.504Z,16.10
2022-09-02T21:36:42.870Z,16.00
2022-09-02T21:38:46.272Z,16.00
2022-09-02T21:41:13.017Z,15.90
2022-09-02T21:44:12.972Z,15.90
2022-09-02T21:46:38.732Z,15.90
2022-09-02T21:49:32.654Z,15.80
2022-09-02T21:51:49.935Z,15.80
2022-09-02T21:54:00.798Z,15.70
2022-09-02T21:56:37.187Z,15.70
2022-09-02T21:59:19.527Z,15.70
2022-09-02T22:01:56.060Z,15.60
2022-09-02T22:04:11.309Z,15.60
2022-09-02T22:06:33.414Z,15.50
2022-09-02T22:08:56.572Z,15.50
2022-09-02T22:11:09.798Z,15.50
2022-09-02T22:13:12.560Z,15.50
2022-09-02T22:15:42.568Z,15.40
2022-09-02T22:17:56.322Z,15.50
2022-09-02T22:20:02.692Z,15.40
2022-09-02T22:22:14.235Z,15.40
2022-09-02T22:24:20.425Z,15.40
2022-09-02T22:26:52.885Z,15.30
2022-09-02T22:29:04.021Z,15.40
2022-09-02T22:31:12.415Z,15.30
2022-09-02T22:33:19.762Z,15.30
2022-09-02T22:35:31.625Z,15.30
2022-09-02T22:38:10.479Z,15.20
2022-09-02T22:40:20.293Z,15.20
2022-09-02T22:42:38.546Z,15.20
2022-09-02T22:45:07.667Z,15.20
2022-09-02T22:47:29.028Z,15.10
2022-09-02T22:49:56.378Z,15.10
2022-09-02T22:52:34.234Z,15.10
2022-09-02T22:54:37.449Z,15.00
2022-09-02T22:57:20.397Z,15.00
2022-09-02T22:59:53.844Z,14.90
2022-09-02T23:02:27.793Z,14.90
2022-09-02T23:05:03.742Z,14.90
2022-09-02T23:07:07.549Z,14.90
2022-09-02T23:09:11.380Z,14.90
2022-09-02T23:11:29.580Z,14.90
2022-09-02T23:14:03.404Z,14.90
2022-09-02T23:16:35.301Z,14.90
2022-09-02T23:19:04.122Z,14.80
2022-09-02T23:21:39.068Z,14.80
2022-09-02T23:24:25.674Z,14.70
2022-09-02T23:26:47.091Z,14.70
2022-09-02T23:29:23.332Z,14.60
2022-09-02T23:31:50.812Z,14.60
2022-09-02T23:34:07.129Z,14.60
2022-09-02T23:36:36.060Z,14.60
2022-09-02T23:39:21.738Z,14.60
2022-09-02T23:41:25.077Z,14.50
2022-09-02T23:43:27.753Z,14.50
2022-09-02T23:45:33.928Z,14.50
2022-09-02T23:48:17.256Z,14.50
2022-09-02T23:50:38.322Z,14.40
2022-09-02T23:52:52.966Z,14.40
2022-09-02T23:55:01.948Z,14.40
2022-09-02T23:57:25.024Z,14.40
